Time;durP1;ratioP1;P1;durP2;ratioP2;P2;SDS_P1;SDS_P2;PMS_P1;PMS_P2;Temp;Humidity;BMP_temperature;BMP_pressure;BME280_temperature;BME280_humidity;BME280_pressure;Samples;Min_cycle;Max_cycle;Signal;HPM_P1;HPM_P2
2022/05/22 00:01:50;;;;;;;15.32;3.88;;;11.30;99.90;;;;;;5004079;28;20092;-58
2022/05/22 00:04:16;;;;;;;10.50;3.70;;;11.30;99.90;;;;;;5008011;28;20508;-58
2022/05/22 00:06:42;;;;;;;14.43;3.28;;;11.40;99.90;;;;;;5001233;28;20133;-58
2022/05/22 00:09:07;;;;;;;8.82;2.63;;;11.40;99.90;;;;;;5001161;28;20037;-59
2022/05/22 00:11:34;;;;;;;10.32;2.78;;;11.40;99.90;;;;;;5013051;28;20406;-58
2022/05/22 00:14:00;;;;;;;10.57;2.55;;;11.40;99.90;;;;;;5012605;28;20030;-58
2022/05/22 00:16:37;;;;;;;14.10;3.67;;;11.40;99.90;;;;;;5012002;28;20030;-60
2022/05/22 00:19:09;;;;;;;7.72;3.08;;;11.40;99.90;;;;;;5013533;28;20022;-59
2022/05/22 00:21:36;;;;;;;9.15;2.60;;;11.40;99.90;;;;;;5005541;28;20034;-59
2022/05/22 00:24:03;;;;;;;7.75;2.60;;;11.40;99.90;;;;;;5001309;28;20040;-59
2022/05/22 00:26:29;;;;;;;9.82;2.67;;;11.50;99.90;;;;;;5011332;28;20048;-59
2022/05/22 00:28:55;;;;;;;9.35;3.00;;;11.50;99.90;;;;;;5005676;28;20026;-59
2022/05/22 00:31:21;;;;;;;9.50;2.70;;;11.50;99.90;;;;;;5003668;28;20046;-60
2022/05/22 00:33:47;;;;;;;10.95;2.47;;;11.50;99.90;;;;;;5013239;28;20121;-60
2022/05/22 00:36:13;;;;;;;12.15;3.42;;;11.50;99.40;;;;;;5001630;28;20050;-59
2022/05/22 00:38:39;;;;;;;11.80;4.50;;;11.50;99.90;;;;;;4999867;28;20054;-60
2022/05/22 00:41:06;;;;;;;17.58;3.95;;;11.50;99.90;;;;;;5008527;28;20060;-60
2022/05/22 00:43:40;;;;;;;9.20;4.70;;;11.50;99.90;;;;;;5012243;28;20362;-60
2022/05/22 00:46:08;;;;;;;8.05;4.35;;;11.40;99.90;;;;;;5012867;28;20061;-59
2022/05/22 00:48:35;;;;;;;9.77;3.45;;;11.30;99.90;;;;;;5012733;28;20037;-60
2022/05/22 00:51:23;;;;;;;12.60;2.75;;;11.20;99.90;;;;;;5004341;28;20053;-60
2022/05/22 00:53:57;;;;;;;9.98;4.05;;;11.20;99.90;;;;;;5007187;28;20026;-60
2022/05/22 00:56:27;;;;;;;11.88;4.03;;;11.10;99.90;;;;;;5009742;28;20428;-60
2022/05/22 00:58:56;;;;;;;9.25;3.95;;;11.10;99.90;;;;;;5012674;28;20530;-60
2022/05/22 01:01:22;;;;;;;11.13;3.10;;;11.10;99.90;;;;;;5009138;28;20037;-60
2022/05/22 01:03:48;;;;;;;8.68;3.85;;;11.20;99.90;;;;;;5012822;28;20505;-62
2022/05/22 01:06:19;;;;;;;6.60;4.15;;;11.20;99.90;;;;;;5009998;28;20124;-59
2022/05/22 01:08:47;;;;;;;11.63;4.45;;;11.00;99.90;;;;;;5002181;28;20022;-59
2022/05/22 01:11:19;;;;;;;13.13;4.72;;;10.90;99.90;;;;;;5000071;28;20034;-59
2022/05/22 01:13:52;;;;;;;9.63;3.70;;;10.80;99.90;;;;;;4997678;28;20029;-59
2022/05/22 01:16:19;;;;;;;10.68;4.55;;;10.70;99.90;;;;;;5010642;28;20034;-59
2022/05/22 01:18:48;;;;;;;11.77;3.67;;;10.80;99.90;;;;;;5010566;28;20034;-59
2022/05/22 01:21:19;;;;;;;9.98;3.63;;;10.80;99.90;;;;;;5006551;28;20037;-60
2022/05/22 01:23:45;;;;;;;10.70;3.47;;;10.80;99.90;;;;;;5010051;28;20030;-59
2022/05/22 01:26:12;;;;;;;9.20;3.75;;;10.70;99.90;;;;;;5009490;28;20042;-60
2022/05/22 01:28:37;;;;;;;12.30;3.65;;;10.70;99.90;;;;;;5011334;28;20025;-61
2022/05/22 01:31:04;;;;;;;9.27;3.80;;;10.70;99.90;;;;;;5001331;28;20050;-60
2022/05/22 01:33:30;;;;;;;10.43;3.15;;;10.70;99.90;;;;;;5010010;28;20022;-60
2022/05/22 01:35:55;;;;;;;8.40;2.63;;;10.70;99.90;;;;;;5011986;28;20053;-60
2022/05/22 01:38:21;;;;;;;10.38;3.05;;;10.80;99.90;;;;;;5005867;28;20108;-60
2022/05/22 01:40:47;;;;;;;5.13;2.00;;;10.80;99.90;;;;;;5010493;28;20041;-60
2022/05/22 01:43:13;;;;;;;7.68;2.88;;;10.80;99.90;;;;;;5008198;28;20021;-60
2022/05/22 01:45:42;;;;;;;6.85;2.78;;;10.70;99.90;;;;;;5011791;28;20045;-60
2022/05/22 01:48:10;;;;;;;6.78;3.58;;;10.60;99.90;;;;;;5010314;28;20444;-60
2022/05/22 01:50:38;;;;;;;5.13;3.30;;;10.60;99.90;;;;;;5011785;28;20080;-60
2022/05/22 01:53:04;;;;;;;10.45;3.53;;;10.60;99.90;;;;;;5011273;28;20034;-60
2022/05/22 01:55:30;;;;;;;8.75;2.63;;;10.40;99.90;;;;;;5009334;28;20088;-58
2022/05/22 01:57:56;;;;;;;13.65;4.55;;;10.40;99.90;;;;;;5003343;28;20113;-60
2022/05/22 02:00:24;;;;;;;8.82;2.97;;;10.40;99.90;;;;;;4999591;28;20034;-60
2022/05/22 02:02:50;;;;;;;8.50;3.30;;;10.40;99.90;;;;;;4997827;28;20023;-60
2022/05/22 02:05:19;;;;;;;6.18;2.40;;;10.40;99.90;;;;;;5005368;28;20037;-60
2022/05/22 02:10:31;;;;;;;8.43;2.33;;;10.40;99.90;;;;;;5008269;28;20084;-59
2022/05/22 02:12:57;;;;;;;10.65;2.22;;;10.30;99.90;;;;;;5010427;28;20065;-60
2022/05/22 02:15:23;;;;;;;9.55;2.10;;;10.30;99.90;;;;;;5009033;28;20089;-59
2022/05/22 02:17:49;;;;;;;13.73;4.50;;;10.20;99.90;;;;;;5011279;28;20030;-59
2022/05/22 02:20:16;;;;;;;6.40;2.63;;;10.10;99.90;;;;;;5007926;28;20172;-59
2022/05/22 02:22:44;;;;;;;6.40;2.67;;;10.10;99.90;;;;;;5010896;28;20477;-58
2022/05/22 02:25:11;;;;;;;8.38;2.28;;;9.90;99.90;;;;;;5008447;28;20040;-59
2022/05/22 02:27:37;;;;;;;10.20;2.30;;;9.90;99.90;;;;;;5010652;28;20076;-59
2022/05/22 02:30:04;;;;;;;6.57;2.40;;;9.90;99.90;;;;;;5006087;28;20104;-59
2022/05/22 02:32:30;;;;;;;7.00;2.17;;;9.90;99.90;;;;;;5008935;28;20040;-59
2022/05/22 02:34:55;;;;;;;7.00;2.10;;;9.90;99.90;;;;;;5010881;28;20038;-59
2022/05/22 02:37:21;;;;;;;8.77;2.50;;;9.80;99.90;;;;;;5009041;28;20021;-59
2022/05/22 02:39:48;;;;;;;10.13;3.17;;;9.80;99.90;;;;;;5009544;28;20462;-59
2022/05/22 02:42:14;;;;;;;5.28;1.58;;;9.70;99.90;;;;;;5007033;28;20033;-59
2022/05/22 02:44:39;;;;;;;4.85;1.52;;;9.70;99.90;;;;;;5010354;28;20386;-60
2022/05/22 02:47:05;;;;;;;8.90;2.40;;;9.70;99.90;;;;;;5010651;28;20061;-59
2022/05/22 02:49:33;;;;;;;6.07;1.60;;;9.70;99.90;;;;;;5008770;28;20026;-59
2022/05/22 02:52:00;;;;;;;7.18;1.98;;;9.70;99.90;;;;;;5010501;28;20116;-59
2022/05/22 02:54:26;;;;;;;8.43;3.15;;;9.70;99.90;;;;;;5007793;28;20550;-59
2022/05/22 02:56:51;;;;;;;10.65;3.95;;;9.60;99.90;;;;;;5009761;28;20105;-59
2022/05/22 02:59:17;;;;;;;7.95;2.67;;;9.60;99.90;;;;;;5008727;28;20405;-59
2022/05/22 03:01:43;;;;;;;6.40;2.30;;;9.60;99.90;;;;;;5010265;28;20038;-59
2022/05/22 03:04:09;;;;;;;5.65;3.10;;;9.50;99.90;;;;;;4996110;28;20037;-58
2022/05/22 03:06:40;;;;;;;7.47;3.05;;;9.60;99.90;;;;;;5010234;28;20088;-58
2022/05/22 03:09:11;;;;;;;11.10;4.10;;;9.50;99.90;;;;;;5009037;28;20052;-58
2022/05/22 03:11:39;;;;;;;10.98;4.10;;;9.50;99.90;;;;;;5002119;28;20398;-58
2022/05/22 03:14:05;;;;;;;6.07;2.60;;;9.50;99.90;;;;;;5009560;28;20045;-58
2022/05/22 03:16:31;;;;;;;11.18;3.00;;;9.60;99.90;;;;;;4996598;28;20397;-58
2022/05/22 03:18:56;;;;;;;5.40;2.17;;;9.70;99.90;;;;;;5009295;28;20041;-60
2022/05/22 03:21:22;;;;;;;6.47;2.15;;;9.80;99.90;;;;;;5008510;28;20396;-60
2022/05/22 03:23:48;;;;;;;10.00;3.65;;;9.80;99.90;;;;;;5009778;28;20041;-60
2022/05/22 03:26:14;;;;;;;8.80;3.28;;;9.80;99.90;;;;;;5007019;28;20456;-59
2022/05/22 03:28:39;;;;;;;6.30;2.50;;;9.80;99.90;;;;;;5009624;28;20389;-60
2022/05/22 03:31:05;;;;;;;7.82;3.63;;;9.80;99.90;;;;;;5009879;28;20073;-60
2022/05/22 03:33:31;;;;;;;10.65;4.25;;;9.80;99.90;;;;;;5009095;28;20398;-58
2022/05/22 03:35:57;;;;;;;13.10;4.57;;;9.90;99.90;;;;;;5008689;28;20033;-60
2022/05/22 03:38:22;;;;;;;5.15;3.05;;;9.90;99.90;;;;;;5008351;28;20030;-59
2022/05/22 03:40:48;;;;;;;9.73;3.25;;;10.00;99.90;;;;;;5008992;28;20037;-59
2022/05/22 03:43:15;;;;;;;4.90;2.60;;;10.00;99.90;;;;;;5007988;28;20025;-58
2022/05/22 03:45:42;;;;;;;9.27;3.30;;;10.00;99.90;;;;;;5008374;28;20034;-59
2022/05/22 03:48:09;;;;;;;8.75;4.03;;;9.90;99.90;;;;;;5008874;28;20037;-59
2022/05/22 03:50:35;;;;;;;13.45;6.57;;;9.90;99.90;;;;;;5009958;28;20044;-59
2022/05/22 03:53:00;;;;;;;13.15;5.25;;;9.70;99.90;;;;;;5009889;28;20412;-59
2022/05/22 03:55:26;;;;;;;11.82;5.72;;;9.70;99.90;;;;;;5007802;28;20478;-59
2022/05/22 03:57:52;;;;;;;13.15;6.10;;;9.50;99.90;;;;;;5009369;28;20032;-59
2022/05/22 04:00:21;;;;;;;13.05;5.63;;;9.50;99.90;;;;;;5007094;28;20029;-59
2022/05/22 04:02:46;;;;;;;12.02;5.78;;;9.50;99.90;;;;;;5009763;28;20037;-59
2022/05/22 04:05:13;;;;;;;12.18;5.18;;;9.40;99.90;;;;;;5006440;28;20038;-59
2022/05/22 04:07:41;;;;;;;13.57;5.43;;;9.30;99.90;;;;;;5009767;28;20392;-59
2022/05/22 04:10:08;;;;;;;8.20;4.43;;;9.30;99.90;;;;;;5006866;28;20109;-60
2022/05/22 04:12:35;;;;;;;10.30;4.80;;;9.30;99.90;;;;;;5008949;28;20029;-58
2022/05/22 04:15:02;;;;;;;10.85;5.03;;;9.30;99.90;;;;;;5008913;28;20058;-59
2022/05/22 04:17:27;;;;;;;12.65;4.18;;;9.30;99.90;;;;;;5007801;28;20168;-60
2022/05/22 04:19:53;;;;;;;9.32;3.97;;;9.30;99.90;;;;;;5008771;28;20456;-60
2022/05/22 04:22:19;;;;;;;7.53;3.47;;;9.40;99.90;;;;;;5007366;28;20030;-59
2022/05/22 04:27:29;;;;;;;9.38;3.72;;;9.40;99.90;;;;;;5003180;28;20390;-59
2022/05/22 04:29:55;;;;;;;6.20;3.45;;;9.50;99.90;;;;;;5007915;28;20026;-60
2022/05/22 04:32:21;;;;;;;10.48;3.97;;;9.50;99.90;;;;;;5007952;28;20042;-59
2022/05/22 04:34:46;;;;;;;6.82;3.38;;;9.50;99.90;;;;;;5009589;28;20437;-59
2022/05/22 04:37:12;;;;;;;11.02;3.53;;;9.50;99.90;;;;;;5006840;28;20041;-60
2022/05/22 04:39:38;;;;;;;8.15;3.67;;;9.50;99.90;;;;;;5009216;28;20040;-59
2022/05/22 04:42:04;;;;;;;7.82;3.70;;;9.50;99.90;;;;;;5009263;28;20129;-58
2022/05/22 04:44:30;;;;;;;9.50;4.05;;;9.50;99.90;;;;;;5004517;28;20018;-59
2022/05/22 04:46:58;;;;;;;10.75;4.07;;;9.40;99.90;;;;;;5008119;28;20402;-59
2022/05/22 04:49:24;;;;;;;9.57;4.72;;;9.40;99.90;;;;;;4997876;28;20489;-59
2022/05/22 04:51:49;;;;;;;14.80;5.63;;;9.40;99.90;;;;;;5009219;28;20026;-60
2022/05/22 04:54:15;;;;;;;13.57;4.88;;;9.50;99.90;;;;;;5009985;28;20030;-60
2022/05/22 04:56:41;;;;;;;14.98;6.28;;;9.50;99.90;;;;;;5012474;28;20057;-60
2022/05/22 04:59:07;;;;;;;13.07;5.20;;;9.60;99.90;;;;;;5010019;28;20393;-60
2022/05/22 05:01:32;;;;;;;19.50;5.90;;;9.70;99.90;;;;;;5006228;28;20037;-60
2022/05/22 05:03:58;;;;;;;14.55;4.75;;;9.70;99.90;;;;;;5010340;28;20085;-60
2022/05/22 05:06:24;;;;;;;7.75;4.13;;;9.70;99.90;;;;;;5010505;28;20038;-60
2022/05/22 05:08:49;;;;;;;10.35;4.18;;;9.70;99.90;;;;;;5012162;28;20439;-60
2022/05/22 05:11:15;;;;;;;15.43;4.97;;;9.80;99.90;;;;;;5010403;28;20041;-60
2022/05/22 05:13:41;;;;;;;13.52;5.38;;;10.00;99.90;;;;;;5012181;28;20105;-60
2022/05/22 05:16:12;;;;;;;15.05;4.97;;;10.10;99.90;;;;;;5012437;28;20033;-60
2022/05/22 05:18:39;;;;;;;12.38;5.53;;;10.20;99.90;;;;;;5012158;28;20034;-59
2022/05/22 05:21:09;;;;;;;16.23;5.57;;;10.30;99.90;;;;;;5012167;28;20524;-60
2022/05/22 05:23:36;;;;;;;12.75;5.88;;;10.30;99.90;;;;;;5008626;28;20386;-60
2022/05/22 05:26:03;;;;;;;14.00;6.63;;;10.40;99.90;;;;;;5011963;28;20038;-60
2022/05/22 05:28:29;;;;;;;18.52;4.80;;;10.60;99.90;;;;;;5002152;28;20608;-60
2022/05/22 05:30:55;;;;;;;9.18;4.28;;;10.60;99.90;;;;;;5011826;28;20144;-60
2022/05/22 05:33:20;;;;;;;9.52;4.97;;;10.80;99.90;;;;;;5010251;28;20049;-60
2022/05/22 05:35:46;;;;;;;12.00;4.95;;;10.90;99.90;;;;;;5011676;28;20035;-59
2022/05/22 05:38:12;;;;;;;13.30;4.70;;;10.90;99.90;;;;;;5008609;28;20026;-59
2022/05/22 05:40:39;;;;;;;14.52;5.07;;;11.10;99.90;;;;;;5012110;28;20065;-59
2022/05/22 05:43:05;;;;;;;11.85;5.97;;;11.10;99.90;;;;;;5011335;28;20088;-60
2022/05/22 05:45:31;;;;;;;10.93;5.32;;;11.10;99.90;;;;;;5008827;28;20025;-59
2022/05/22 05:47:57;;;;;;;13.13;4.80;;;11.10;99.90;;;;;;5009403;28;20040;-59
2022/05/22 05:50:25;;;;;;;13.55;4.90;;;11.20;99.90;;;;;;5009834;28;20112;-62
2022/05/22 05:52:56;;;;;;;10.85;4.72;;;11.20;99.90;;;;;;5011725;28;20026;-60
2022/05/22 05:55:24;;;;;;;11.55;4.40;;;11.30;99.90;;;;;;5002813;28;20125;-60
2022/05/22 05:57:50;;;;;;;12.27;3.45;;;11.50;99.90;;;;;;5008496;28;20065;-59
2022/05/22 06:00:19;;;;;;;9.65;2.92;;;11.50;99.90;;;;;;5009714;28;20509;-59
2022/05/22 06:02:45;;;;;;;7.20;2.70;;;11.70;99.90;;;;;;5011198;28;20038;-59
2022/05/22 06:05:12;;;;;;;10.23;3.03;;;11.70;99.90;;;;;;5008278;28;20498;-60
2022/05/22 06:07:38;;;;;;;5.97;2.80;;;11.90;99.90;;;;;;5011090;28;20026;-59
2022/05/22 06:10:06;;;;;;;10.45;3.05;;;12.00;99.90;;;;;;5011130;28;20030;-59
2022/05/22 06:12:32;;;;;;;11.98;3.58;;;12.00;99.90;;;;;;5008258;28;20037;-58
2022/05/22 06:14:58;;;;;;;12.18;3.75;;;12.10;99.90;;;;;;5004458;28;20034;-59
2022/05/22 06:17:36;;;;;;;14.15;4.32;;;12.20;99.90;;;;;;5009351;28;20052;-58
2022/05/22 06:20:06;;;;;;;12.52;3.17;;;12.20;99.90;;;;;;5010672;28;20156;-59
2022/05/22 06:22:32;;;;;;;25.90;4.43;;;12.20;99.90;;;;;;5017501;28;20025;-59
2022/05/22 06:24:58;;;;;;;12.80;4.22;;;12.30;99.90;;;;;;5010892;28;20405;-60
2022/05/22 06:27:24;;;;;;;12.63;5.57;;;12.40;99.90;;;;;;5006705;28;20030;-60
2022/05/22 06:29:50;;;;;;;16.65;5.57;;;12.50;99.90;;;;;;5009855;28;20436;-60
2022/05/22 06:32:18;;;;;;;17.00;4.43;;;12.60;99.90;;;;;;5011957;28;20029;-60
2022/05/22 06:34:44;;;;;;;11.63;4.18;;;12.80;99.90;;;;;;5009826;28;20036;-60
2022/05/22 06:37:13;;;;;;;14.65;4.28;;;12.80;99.90;;;;;;5011139;28;20034;-59
2022/05/22 06:39:51;;;;;;;13.20;3.67;;;12.90;99.90;;;;;;5012261;28;20022;-58
2022/05/22 06:42:20;;;;;;;12.07;4.20;;;12.90;99.90;;;;;;5008921;28;20048;-58
2022/05/22 06:44:51;;;;;;;13.02;3.75;;;13.00;99.90;;;;;;5018624;28;20026;-59
2022/05/22 06:47:16;;;;;;;12.43;4.77;;;12.90;99.90;;;;;;5008192;28;20477;-58
2022/05/22 06:49:43;;;;;;;13.90;4.10;;;13.00;99.90;;;;;;5009927;28;20080;-59
2022/05/22 06:52:09;;;;;;;14.77;6.40;;;13.10;99.90;;;;;;5004014;28;20034;-59
2022/05/22 06:54:35;;;;;;;14.18;4.13;;;13.30;99.90;;;;;;5006940;28;20088;-59
2022/05/22 06:57:01;;;;;;;10.38;4.88;;;13.40;99.90;;;;;;5014548;28;20359;-59
2022/05/22 06:59:27;;;;;;;13.30;4.18;;;13.50;99.90;;;;;;5016659;28;20113;-61
2022/05/22 07:01:53;;;;;;;15.30;4.63;;;13.50;99.90;;;;;;5020161;28;20113;-60
2022/05/22 07:04:22;;;;;;;13.73;5.38;;;13.80;99.90;;;;;;5016781;28;20055;-60
2022/05/22 07:06:48;;;;;;;13.93;4.50;;;13.90;99.90;;;;;;5015906;28;20049;-59
2022/05/22 07:09:15;;;;;;;10.73;5.13;;;14.00;99.90;;;;;;5007725;28;20544;-60
2022/05/22 07:11:41;;;;;;;12.80;4.80;;;14.10;99.90;;;;;;5010016;28;20547;-60
2022/05/22 07:14:09;;;;;;;14.93;5.88;;;14.30;99.70;;;;;;5000848;28;20034;-59
2022/05/22 07:16:36;;;;;;;14.43;6.05;;;14.30;99.70;;;;;;5001278;28;20026;-58
2022/05/22 07:19:04;;;;;;;13.07;5.88;;;14.50;99.60;;;;;;5009738;28;20056;-60
2022/05/22 07:21:29;;;;;;;10.57;4.28;;;14.50;99.00;;;;;;5008049;28;20073;-60
2022/05/22 07:23:55;;;;;;;10.05;4.80;;;14.50;98.40;;;;;;5010079;28;20060;-59
2022/05/22 07:26:24;;;;;;;11.55;3.95;;;14.50;98.00;;;;;;5007588;28;20045;-59
2022/05/22 07:28:50;;;;;;;12.00;5.72;;;14.70;97.70;;;;;;5003311;28;20129;-60
2022/05/22 07:31:23;;;;;;;10.60;5.95;;;14.60;97.50;;;;;;5002022;28;20497;-60
2022/05/22 07:33:50;;;;;;;12.50;7.45;;;14.70;97.80;;;;;;5004172;28;20543;-59
2022/05/22 07:36:16;;;;;;;14.07;7.13;;;14.80;97.70;;;;;;5008276;28;20164;-59
2022/05/22 07:38:43;;;;;;;15.50;6.05;;;14.80;97.40;;;;;;5009981;28;20041;-60
2022/05/22 07:41:09;;;;;;;11.40;5.53;;;14.80;97.20;;;;;;5009768;28;20088;-59
2022/05/22 07:43:35;;;;;;;17.15;6.75;;;14.70;97.40;;;;;;5008959;28;20049;-59
2022/05/22 07:46:01;;;;;;;14.90;7.82;;;14.50;97.90;;;;;;5009549;28;20131;-59
2022/05/22 07:48:27;;;;;;;13.32;5.95;;;14.30;98.60;;;;;;5006789;28;20049;-59
2022/05/22 07:50:57;;;;;;;17.35;8.32;;;14.00;99.20;;;;;;5008778;28;20111;-60
2022/05/22 07:53:24;;;;;;;15.95;6.72;;;13.90;99.70;;;;;;4998983;28;20026;-59
2022/05/22 07:55:50;;;;;;;16.08;7.35;;;13.80;99.60;;;;;;5003982;28;20026;-59
2022/05/22 07:58:17;;;;;;;15.55;6.53;;;13.90;99.80;;;;;;5001384;28;20018;-59
2022/05/22 08:00:43;;;;;;;14.13;6.28;;;13.90;99.90;;;;;;5006288;28;20034;-60
2022/05/22 08:03:11;;;;;;;17.98;6.97;;;13.90;99.90;;;;;;5000725;28;20038;-59
2022/05/22 08:05:37;;;;;;;17.00;6.75;;;14.00;99.90;;;;;;5004415;28;20034;-60
2022/05/22 08:08:04;;;;;;;15.82;6.25;;;14.20;99.90;;;;;;5017602;28;20026;-59
2022/05/22 08:10:30;;;;;;;18.48;7.55;;;14.20;99.50;;;;;;5007572;28;20065;-59
2022/05/22 08:12:55;;;;;;;15.55;6.20;;;14.30;99.60;;;;;;5014257;28;20029;-60
2022/05/22 08:15:24;;;;;;;17.23;7.60;;;14.40;99.10;;;;;;5007265;28;20034;-60
2022/05/22 08:17:50;;;;;;;14.45;5.18;;;14.50;98.80;;;;;;5006459;28;20061;-60
2022/05/22 08:20:19;;;;;;;16.90;5.22;;;14.50;98.30;;;;;;5016332;28;20053;-60
2022/05/22 08:22:45;;;;;;;14.95;6.40;;;14.70;98.10;;;;;;5009964;28;20061;-60
2022/05/22 08:25:17;;;;;;;12.20;5.38;;;14.90;97.80;;;;;;5005702;28;20026;-60
2022/05/22 08:27:43;;;;;;;12.05;5.93;;;15.00;97.30;;;;;;5012847;28;20113;-60
2022/05/22 08:30:12;;;;;;;14.00;5.07;;;15.10;97.20;;;;;;5017752;28;20045;-60
2022/05/22 08:32:39;;;;;;;14.98;5.38;;;15.20;96.90;;;;;;5005435;28;20118;-59
2022/05/22 08:35:06;;;;;;;15.00;4.47;;;15.30;97.00;;;;;;5012517;28;20042;-60
2022/05/22 08:37:33;;;;;;;17.45;6.10;;;15.40;96.50;;;;;;5010053;28;20393;-60
2022/05/22 08:39:59;;;;;;;13.65;5.25;;;15.60;96.20;;;;;;5012977;28;20033;-59
2022/05/22 08:42:35;;;;;;;12.80;5.20;;;15.60;95.90;;;;;;5008779;28;20069;-59
2022/05/22 08:45:06;;;;;;;17.55;5.50;;;15.70;95.80;;;;;;5008509;28;20034;-58
2022/05/22 08:47:44;;;;;;;13.80;4.45;;;15.90;95.20;;;;;;5002418;28;20030;-60
2022/05/22 08:50:12;;;;;;;9.80;4.47;;;16.00;94.60;;;;;;5008356;28;20031;-60
2022/05/22 08:52:51;;;;;;;12.13;3.95;;;16.10;94.10;;;;;;5010049;28;20324;-59
2022/05/22 08:55:24;;;;;;;18.30;4.63;;;16.20;94.30;;;;;;5003954;28;20446;-59
2022/05/22 09:00:47;;;;;;;9.52;3.25;;;16.50;93.60;;;;;;5006660;28;20142;-59
2022/05/22 09:03:26;;;;;;;15.60;3.08;;;16.50;92.30;;;;;;5007372;28;20112;-59
2022/05/22 09:05:59;;;;;;;17.23;3.10;;;16.80;91.50;;;;;;5012499;28;20453;-59
2022/05/22 09:08:42;;;;;;;10.45;2.55;;;17.10;91.00;;;;;;5023776;28;20072;-60
2022/05/22 09:11:23;;;;;;;12.20;3.65;;;17.20;90.50;;;;;;5031946;28;20025;-60
2022/05/22 09:14:27;;;;;;;11.02;3.03;;;17.20;90.00;;;;;;5020375;28;20131;-59
2022/05/22 09:17:00;;;;;;;6.25;2.35;;;17.30;90.00;;;;;;5006944;28;20083;-59
2022/05/22 09:19:40;;;;;;;13.52;2.60;;;17.40;88.20;;;;;;5009904;28;20398;-59
2022/05/22 09:22:23;;;;;;;14.68;2.95;;;17.40;87.80;;;;;;5010639;28;20030;-59
2022/05/22 09:25:25;;;;;;;12.68;2.35;;;17.40;85.10;;;;;;5012594;28;20030;-59
2022/05/22 09:27:56;;;;;;;8.32;2.25;;;17.40;85.70;;;;;;5013230;28;20033;-60
2022/05/22 09:30:42;;;;;;;10.38;2.92;;;17.60;85.80;;;;;;4996054;28;20069;-60
2022/05/22 09:33:17;;;;;;;14.38;3.22;;;17.70;84.20;;;;;;5012186;28;20042;-60
2022/05/22 09:36:26;;;;;;;7.35;2.47;;;17.80;83.90;;;;;;5004012;28;20029;-59
2022/05/22 09:38:58;;;;;;;13.77;2.70;;;17.80;83.20;;;;;;5001578;28;20441;-60
2022/05/22 09:41:40;;;;;;;6.15;1.90;;;17.90;82.70;;;;;;5020240;28;20505;-59
2022/05/22 09:44:34;;;;;;;6.63;1.77;;;17.90;81.60;;;;;;5020324;28;20038;-60
2022/05/22 09:47:09;;;;;;;7.90;2.33;;;18.20;80.90;;;;;;5015225;28;20080;-59
2022/05/22 09:49:53;;;;;;;4.53;1.33;;;18.30;80.90;;;;;;4993237;28;20490;-60
2022/05/22 09:52:26;;;;;;;9.95;1.83;;;18.40;79.00;;;;;;4999712;28;20038;-60
2022/05/22 09:55:19;;;;;;;8.07;1.73;;;18.60;77.80;;;;;;5009021;28;20030;-60
2022/05/22 09:58:03;;;;;;;9.60;1.58;;;18.60;75.30;;;;;;5025134;28;20044;-60
2022/05/22 10:00:44;;;;;;;7.57;1.50;;;18.70;69.60;;;;;;5012614;28;20485;-59
2022/05/22 10:03:23;;;;;;;9.43;3.20;;;18.60;72.90;;;;;;5021775;28;20048;-59
2022/05/22 10:06:03;;;;;;;6.47;1.80;;;18.60;76.10;;;;;;5020300;28;20337;-59
2022/05/22 10:08:32;;;;;;;10.52;2.30;;;18.80;75.30;;;;;;5015273;28;20021;-59
2022/05/22 10:11:25;;;;;;;2.40;1.30;;;18.80;76.00;;;;;;5015023;28;20056;-59
2022/05/22 10:14:28;;;;;;;7.93;1.20;;;18.80;78.30;;;;;;5004595;28;20505;-59
2022/05/22 10:17:08;;;;;;;7.43;1.83;;;18.80;78.00;;;;;;5005308;28;20046;-60
2022/05/22 10:19:46;;;;;;;4.68;1.02;;;19.00;75.80;;;;;;5009489;28;20366;-62
2022/05/22 10:22:31;;;;;;;8.15;1.50;;;19.30;73.20;;;;;;5018978;28;20028;-60
2022/05/22 10:25:03;;;;;;;8.60;1.50;;;19.40;71.60;;;;;;5004340;28;20061;-60
2022/05/22 10:27:41;;;;;;;12.48;1.83;;;19.50;71.80;;;;;;5003102;28;20053;-60
2022/05/22 10:30:13;;;;;;;10.02;1.58;;;19.80;72.90;;;;;;5014469;28;20052;-60
2022/05/22 10:33:05;;;;;;;8.38;2.45;;;19.60;70.70;;;;;;5008069;28;20062;-60
2022/05/22 10:35:44;;;;;;;11.10;2.08;;;19.60;69.80;;;;;;5006378;28;20041;-59
2022/05/22 10:38:36;;;;;;;3.78;1.23;;;19.30;69.80;;;;;;5022791;28;20034;-59
2022/05/22 10:44:09;;;;;;;6.03;0.80;;;19.20;62.50;;;;;;5006411;28;20508;-60
2022/05/22 10:46:46;;;;;;;3.63;0.85;;;19.00;63.40;;;;;;5020191;28;20037;-60
2022/05/22 10:49:12;;;;;;;2.53;0.98;;;19.00;57.70;;;;;;5006201;28;20026;-60
2022/05/22 10:51:38;;;;;;;1.75;0.52;;;19.00;56.30;;;;;;4999328;28;20026;-60
2022/05/22 10:54:03;;;;;;;1.88;0.40;;;19.00;53.00;;;;;;4995318;28;20038;-59
2022/05/22 10:56:35;;;;;;;2.75;0.77;;;19.30;53.10;;;;;;5003974;28;21147;-59
2022/05/22 10:59:18;;;;;;;3.58;0.98;;;19.40;50.60;;;;;;5007469;28;20036;-59
2022/05/22 11:01:43;;;;;;;3.28;0.60;;;19.70;50.60;;;;;;5002831;28;20026;-59
2022/05/22 11:04:12;;;;;;;4.13;1.00;;;19.80;47.60;;;;;;5010976;28;20116;-60
2022/05/22 11:06:59;;;;;;;1.80;0.40;;;20.30;48.00;;;;;;5003271;28;20038;-60
2022/05/22 11:09:27;;;;;;;2.88;0.40;;;20.50;45.10;;;;;;5010903;28;20030;-60
2022/05/22 11:12:07;;;;;;;3.83;0.60;;;20.70;44.50;;;;;;5015729;28;20068;-60
2022/05/22 11:14:35;;;;;;;2.17;0.40;;;21.00;45.70;;;;;;5018072;28;20029;-60
2022/05/22 11:17:30;;;;;;;3.35;0.50;;;21.20;44.30;;;;;;5018140;28;20018;-60
2022/05/22 11:19:57;;;;;;;3.72;0.95;;;21.40;45.70;;;;;;4995003;28;20045;-60
2022/05/22 11:22:44;;;;;;;2.13;0.60;;;21.10;41.60;;;;;;5008670;28;20033;-60
2022/05/22 11:25:16;;;;;;;1.65;0.55;;;21.10;41.30;;;;;;5007849;28;20033;-60
2022/05/22 11:28:09;;;;;;;1.42;0.40;;;21.40;38.70;;;;;;5008751;28;20041;-61
2022/05/22 11:30:56;;;;;;;3.28;0.57;;;21.50;40.20;;;;;;5009555;28;20391;-60
2022/05/22 11:33:52;;;;;;;2.30;0.60;;;22.00;40.20;;;;;;4998343;28;20038;-60
2022/05/22 11:36:29;;;;;;;3.03;0.70;;;22.30;39.70;;;;;;4997825;28;20038;-61
2022/05/22 11:39:22;;;;;;;1.25;0.40;;;22.60;38.40;;;;;;5002023;28;20612;-60
2022/05/22 11:41:54;;;;;;;4.32;0.50;;;22.70;38.00;;;;;;4994621;28;20076;-59
2022/05/22 11:44:34;;;;;;;;;;;22.80;37.20;;;;;;4997157;28;20057;-61
2022/05/22 11:47:06;;;;;;;5.75;0.75;;;23.00;37.20;;;;;;5009485;28;20369;-60
2022/05/22 11:50:01;;;;;;;2.47;0.47;;;22.80;36.60;;;;;;5007763;28;20394;-60
2022/05/22 11:52:56;;;;;;;1.27;0.30;;;22.70;36.90;;;;;;4998752;28;20116;-59
2022/05/22 11:55:53;;;;;;;1.73;0.85;;;22.90;35.50;;;;;;4997946;28;20034;-60
2022/05/22 11:58:37;;;;;;;1.48;0.47;;;23.00;37.50;;;;;;5007674;28;20030;-61
2022/05/22 12:01:12;;;;;;;2.08;0.60;;;23.60;37.10;;;;;;5001368;28;20153;-60
2022/05/22 12:04:10;;;;;;;0.85;0.60;;;23.70;37.40;;;;;;5001296;28;20116;-61
2022/05/22 12:06:58;;;;;;;1.65;0.98;;;23.80;37.50;;;;;;4980331;28;20033;-60
2022/05/22 12:10:06;;;;;;;2.10;0.50;;;24.00;37.60;;;;;;5011437;28;20139;-60
2022/05/22 12:13:10;;;;;;;2.35;0.35;;;23.80;37.30;;;;;;5003638;28;20030;-60
2022/05/22 12:15:42;;;;;;;2.20;0.70;;;23.60;36.70;;;;;;5010347;28;20030;-61
2022/05/22 12:18:26;;;;;;;2.22;0.60;;;23.40;37.80;;;;;;5013344;28;20025;-60
2022/05/22 12:21:02;;;;;;;0.93;0.65;;;23.50;36.60;;;;;;5012103;28;20386;-61
2022/05/22 12:23:52;;;;;;;0.70;0.30;;;23.70;34.40;;;;;;5002235;28;20093;-61
2022/05/22 12:26:18;;;;;;;1.73;0.40;;;23.70;36.10;;;;;;5011192;28;20084;-60
2022/05/22 12:28:50;;;;;;;3.03;0.40;;;23.60;34.70;;;;;;5013032;28;20026;-61
2022/05/22 12:31:42;;;;;;;3.10;0.63;;;23.50;35.50;;;;;;5002930;28;20056;-59
2022/05/22 12:34:19;;;;;;;2.20;0.50;;;24.30;35.30;;;;;;5012071;28;20436;-61
2022/05/22 12:36:49;;;;;;;3.30;0.55;;;25.10;35.00;;;;;;5013193;28;20134;-61
2022/05/22 12:39:17;;;;;;;2.45;0.43;;;25.50;34.30;;;;;;5010844;28;20080;-61
2022/05/22 12:41:42;;;;;;;3.78;1.45;;;24.80;33.50;;;;;;5012740;28;20018;-61
2022/05/22 12:44:08;;;;;;;2.40;0.75;;;24.70;33.30;;;;;;5011694;28;20083;-61
2022/05/22 12:46:36;;;;;;;2.33;0.63;;;24.60;32.70;;;;;;5010929;28;20034;-60
2022/05/22 12:49:25;;;;;;;2.53;0.50;;;24.70;33.40;;;;;;5012412;28;20092;-60
2022/05/22 12:52:26;;;;;;;2.75;0.70;;;24.30;33.50;;;;;;5012441;28;20033;-59
2022/05/22 12:55:21;;;;;;;3.93;0.77;;;24.00;34.70;;;;;;5009575;28;20429;-60
2022/05/22 12:57:56;;;;;;;1.83;0.57;;;24.30;34.50;;;;;;5010819;28;20505;-60
2022/05/22 13:00:36;;;;;;;2.55;0.38;;;24.40;35.00;;;;;;5010513;28;20478;-61
2022/05/22 13:03:08;;;;;;;4.97;1.13;;;24.80;34.10;;;;;;5011537;28;20038;-59
2022/05/22 13:05:35;;;;;;;1.55;0.70;;;25.60;34.00;;;;;;5007894;28;20037;-61
2022/05/22 13:08:01;;;;;;;1.80;0.63;;;26.10;33.90;;;;;;5012069;28;20378;-60
2022/05/22 13:10:35;;;;;;;0.70;0.35;;;25.90;33.00;;;;;;5010755;28;20025;-60
2022/05/22 13:13:06;;;;;;;1.95;0.50;;;26.40;32.10;;;;;;5009708;28;20034;-61
2022/05/22 13:15:34;;;;;;;2.28;0.40;;;26.60;30.60;;;;;;5005347;28;20029;-60